createdAt,value
2022-10-22T00:00:14.186Z,99308.69
2022-10-22T00:02:43.146Z,99321.53
2022-10-22T00:05:12.328Z,99335.72
2022-10-22T00:07:39.695Z,99339.09
2022-10-22T00:10:07.339Z,99336.91
2022-10-22T00:12:35.118Z,99331.50
2022-10-22T00:15:04.719Z,99341.38
2022-10-22T00:17:31.654Z,99338.16
2022-10-22T00:19:59.657Z,99336.22
2022-10-22T00:22:28.624Z,99345.69
2022-10-22T00:24:56.522Z,99347.75
2022-10-22T00:27:23.555Z,99354.78
2022-10-22T00:29:51.250Z,99351.97
2022-10-22T00:32:18.319Z,99350.41
2022-10-22T00:34:45.309Z,99346.84
2022-10-22T00:37:12.265Z,99345.50
2022-10-22T00:39:40.213Z,99340.38
2022-10-22T00:42:07.247Z,99335.69
2022-10-22T00:45:03.281Z,99335.47
2022-10-22T00:47:57.081Z,99338.28
2022-10-22T00:50:31.743Z,99340.97
2022-10-22T00:52:59.160Z,99332.34
2022-10-22T00:55:28.927Z,99319.09
2022-10-22T00:57:58.045Z,99308.91
2022-10-22T01:00:25.872Z,99311.41
2022-10-22T01:02:55.839Z,99306.28
2022-10-22T01:05:29.695Z,99304.63
2022-10-22T01:07:58.223Z,99305.63
2022-10-22T01:10:46.255Z,99305.50
2022-10-22T01:13:43.907Z,99310.00
2022-10-22T01:16:19.907Z,99312.84
2022-10-22T01:18:55.589Z,99304.56
2022-10-22T01:21:44.694Z,99290.88
2022-10-22T01:24:54.870Z,99284.00
2022-10-22T01:27:36.916Z,99287.47
2022-10-22T01:30:09.897Z,99283.22
2022-10-22T01:33:00.904Z,99284.72
2022-10-22T01:35:37.302Z,99274.19
2022-10-22T01:38:11.138Z,99282.94
2022-10-22T01:40:40.276Z,99271.34
2022-10-22T01:43:09.670Z,99281.59
2022-10-22T01:45:58.732Z,99286.06
2022-10-22T01:48:52.998Z,99284.47
2022-10-22T01:51:38.533Z,99304.47
2022-10-22T01:54:14.523Z,99303.56
2022-10-22T01:56:58.928Z,99291.94
2022-10-22T01:59:42.157Z,99272.47
2022-10-22T02:02:34.229Z,99247.94
2022-10-22T02:05:10.351Z,99257.34
2022-10-22T02:07:43.954Z,99256.19
2022-10-22T02:10:11.247Z,99260.22
2022-10-22T02:12:41.277Z,99267.34
2022-10-22T02:15:12.281Z,99273.44
2022-10-22T02:17:42.749Z,99294.28
2022-10-22T02:20:26.279Z,99313.63
2022-10-22T02:22:53.586Z,99309.59
2022-10-22T02:25:24.753Z,99297.28
2022-10-22T02:28:13.187Z,99293.19
2022-10-22T02:30:44.635Z,99295.25
2022-10-22T02:33:23.420Z,99302.91
2022-10-22T02:35:52.549Z,99301.84
2022-10-22T02:38:21.885Z,99305.06
2022-10-22T02:40:49.006Z,99301.41
2022-10-22T02:43:15.908Z,99284.88
2022-10-22T02:45:43.087Z,99278.41
2022-10-22T02:48:12.327Z,99283.47
2022-10-22T02:50:39.283Z,99278.72
2022-10-22T02:53:06.233Z,99277.81
2022-10-22T02:55:33.228Z,99288.41
2022-10-22T02:58:01.114Z,99297.22
2022-10-22T03:00:30.168Z,99300.78
2022-10-22T03:02:58.238Z,99287.31
2022-10-22T03:05:25.088Z,99282.19
2022-10-22T03:07:52.053Z,99283.97
2022-10-22T03:10:21.016Z,99284.69
2022-10-22T03:12:48.591Z,99294.38
2022-10-22T03:15:16.570Z,99290.16
2022-10-22T03:17:43.671Z,99289.56
2022-10-22T03:20:10.717Z,99300.78
2022-10-22T03:22:41.520Z,99299.53
2022-10-22T03:25:14.121Z,99306.53
2022-10-22T03:27:42.387Z,99296.75
2022-10-22T03:30:10.521Z,99285.09
2022-10-22T03:32:37.424Z,99276.13
2022-10-22T03:35:05.863Z,99266.72
2022-10-22T03:37:34.178Z,99264.94
2022-10-22T03:40:03.862Z,99253.63
2022-10-22T03:42:32.871Z,99254.53
2022-10-22T03:44:59.919Z,99253.75
2022-10-22T03:47:26.907Z,99259.84
2022-10-22T03:49:53.870Z,99254.97
2022-10-22T03:52:20.830Z,99255.84
2022-10-22T03:54:48.732Z,99248.22
2022-10-22T03:57:16.725Z,99249.72
2022-10-22T03:59:46.389Z,99258.75
2022-10-22T04:02:14.491Z,99274.28
2022-10-22T04:04:41.547Z,99268.97
2022-10-22T04:07:08.726Z,99272.63
2022-10-22T04:09:37.191Z,99269.75
2022-10-22T04:12:06.745Z,99262.84
2022-10-22T04:14:34.789Z,99253.16
2022-10-22T04:17:02.972Z,99264.72
2022-10-22T04:19:30.923Z,99262.13
2022-10-22T04:22:01.559Z,99269.91
2022-10-22T04:24:30.190Z,99278.00
2022-10-22T04:26:58.430Z,99287.69
2022-10-22T04:29:25.464Z,99288.56
2022-10-22T04:31:52.600Z,99278.00
2022-10-22T04:34:19.603Z,99268.44
2022-10-22T04:36:47.891Z,99264.91
2022-10-22T04:39:15.934Z,99258.91
2022-10-22T04:41:42.883Z,99254.50
2022-10-22T04:44:12.391Z,99243.19
2022-10-22T04:46:44.527Z,99245.72
2022-10-22T04:49:11.829Z,99237.69
2022-10-22T04:51:39.822Z,99221.03
2022-10-22T04:54:06.837Z,99234.91
2022-10-22T04:56:33.783Z,99244.69
2022-10-22T04:59:05.682Z,99258.66
2022-10-22T05:01:39.993Z,99276.31
2022-10-22T05:04:12.964Z,99267.00
2022-10-22T05:06:40.212Z,99268.81
2022-10-22T05:09:13.280Z,99284.63
2022-10-22T05:11:42.244Z,99289.78
2022-10-22T05:14:10.729Z,99292.44
2022-10-22T05:16:40.930Z,99288.56
2022-10-22T05:19:08.572Z,99284.88
2022-10-22T05:21:38.036Z,99280.63
2022-10-22T05:24:05.303Z,99263.34
2022-10-22T05:26:33.294Z,99270.56
2022-10-22T05:29:01.192Z,99266.19
2022-10-22T05:31:31.103Z,99281.97
2022-10-22T05:33:58.276Z,99284.31
2022-10-22T05:36:25.309Z,99279.47
2022-10-22T05:38:52.609Z,99282.22
2022-10-22T05:41:23.760Z,99279.88
2022-10-22T05:43:50.737Z,99274.63
2022-10-22T05:46:22.754Z,99285.59
2022-10-22T05:48:55.333Z,99302.50
2022-10-22T05:51:22.952Z,99316.03
2022-10-22T05:53:55.154Z,99324.06
2022-10-22T05:56:22.874Z,99333.00
2022-10-22T05:58:50.232Z,99348.22
2022-10-22T06:01:20.133Z,99337.75
2022-10-22T06:03:48.938Z,99342.00
2022-10-22T06:06:25.694Z,99340.22
2022-10-22T06:08:54.963Z,99351.47
2022-10-22T06:11:23.418Z,99358.00
2022-10-22T06:13:51.242Z,99356.59
2022-10-22T06:16:18.463Z,99345.25
2022-10-22T06:18:45.458Z,99352.25
2022-10-22T06:21:15.213Z,99342.06
2022-10-22T06:23:44.545Z,99340.03
2022-10-22T06:26:11.725Z,99337.72
2022-10-22T06:28:39.800Z,99325.16
2022-10-22T06:31:07.206Z,99344.41
2022-10-22T06:33:35.108Z,99346.63
2022-10-22T06:36:10.115Z,99334.94
2022-10-22T06:38:37.119Z,99343.53
2022-10-22T06:41:10.483Z,99341.53
2022-10-22T06:43:37.425Z,99343.44
2022-10-22T06:46:09.903Z,99330.28
2022-10-22T06:48:38.253Z,99328.34
2022-10-22T06:51:07.976Z,99313.94
2022-10-22T06:53:36.272Z,99311.91
2022-10-22T06:56:23.497Z,99313.75
2022-10-22T06:58:52.405Z,99319.19
2022-10-22T07:01:24.354Z,99333.97
2022-10-22T07:03:52.789Z,99348.50
2022-10-22T07:06:20.867Z,99348.84
2022-10-22T07:08:47.814Z,99349.63
2022-10-22T07:11:18.060Z,99368.78
2022-10-22T07:13:45.714Z,99367.38
2022-10-22T07:16:13.794Z,99381.69
2022-10-22T07:18:41.795Z,99368.81
2022-10-22T07:21:09.874Z,99367.78
2022-10-22T07:23:37.239Z,99349.78
2022-10-22T07:26:07.411Z,99354.91
2022-10-22T07:28:36.759Z,99357.44
2022-10-22T07:31:03.849Z,99367.03
2022-10-22T07:33:30.767Z,99371.66
2022-10-22T07:36:00.158Z,99356.97
2022-10-22T07:38:27.596Z,99347.97
2022-10-22T07:40:54.854Z,99372.13
2022-10-22T07:43:22.475Z,99377.56
2022-10-22T07:45:49.396Z,99376.44
2022-10-22T07:48:16.877Z,99379.63
2022-10-22T07:53:11.604Z,99367.47
2022-10-22T07:55:38.516Z,99373.06
2022-10-22T07:58:05.441Z,99385.38
2022-10-22T08:00:32.350Z,99375.41
2022-10-22T08:02:59.287Z,99365.28
2022-10-22T08:05:26.366Z,99374.72
2022-10-22T08:07:53.317Z,99372.97
2022-10-22T08:10:21.303Z,99381.19
2022-10-22T08:12:48.256Z,99383.91
2022-10-22T08:15:16.214Z,99390.06
2022-10-22T08:17:43.633Z,99385.34
2022-10-22T08:20:11.230Z,99385.13
2022-10-22T08:22:38.156Z,99380.91
2022-10-22T08:25:06.267Z,99383.13
2022-10-22T08:27:33.229Z,99385.31
2022-10-22T08:30:00.099Z,99376.38
2022-10-22T08:34:58.811Z,99377.97
2022-10-22T08:37:26.203Z,99370.69
2022-10-22T08:39:53.218Z,99368.16
2022-10-22T08:42:41.909Z,99369.81
2022-10-22T08:45:13.700Z,99383.31
2022-10-22T08:47:48.365Z,99388.84
2022-10-22T08:50:20.049Z,99384.00
2022-10-22T08:52:52.572Z,99392.50
2022-10-22T08:55:23.687Z,99390.59
2022-10-22T08:57:56.402Z,99398.16
2022-10-22T09:00:40.555Z,99395.63
2022-10-22T09:03:29.295Z,99396.56
2022-10-22T09:05:59.371Z,99404.34
2022-10-22T09:08:26.473Z,99399.72
2022-10-22T09:11:03.725Z,99396.72
2022-10-22T09:13:31.113Z,99398.72
2022-10-22T09:16:14.458Z,99401.53
2022-10-22T09:18:53.965Z,99407.16
2022-10-22T09:21:52.321Z,99409.72
2022-10-22T09:24:49.514Z,99407.31
2022-10-22T09:27:18.724Z,99401.16
2022-10-22T09:29:47.830Z,99396.72
2022-10-22T09:32:16.274Z,99389.06
2022-10-22T09:34:50.032Z,99400.53
2022-10-22T09:37:18.146Z,99399.97
2022-10-22T09:39:51.579Z,99410.97
2022-10-22T09:42:21.044Z,99410.13
2022-10-22T09:44:58.622Z,99400.38
2022-10-22T09:50:55.480Z,99395.91
2022-10-22T09:53:27.274Z,99406.19
2022-10-22T09:55:59.931Z,99398.78
2022-10-22T09:58:28.013Z,99399.28
2022-10-22T10:00:58.013Z,99402.31
2022-10-22T10:03:33.640Z,99406.25
2022-10-22T10:06:05.924Z,99395.59
2022-10-22T10:08:33.482Z,99401.94
2022-10-22T10:11:06.949Z,99391.47
2022-10-22T10:14:08.558Z,99401.50
2022-10-22T10:16:50.622Z,99410.34
2022-10-22T10:19:26.136Z,99389.69
2022-10-22T10:22:16.125Z,99399.88
2022-10-22T10:25:03.490Z,99393.38
2022-10-22T10:27:37.344Z,99388.06
2022-10-22T10:30:10.235Z,99378.97
2022-10-22T10:32:53.215Z,99369.72
2022-10-22T10:35:32.489Z,99383.78
2022-10-22T10:38:35.040Z,99388.16
2022-10-22T10:41:10.947Z,99380.69
2022-10-22T10:44:04.468Z,99377.94
2022-10-22T10:46:40.850Z,99384.09
2022-10-22T10:49:19.087Z,99380.94
2022-10-22T10:52:02.462Z,99381.69
2022-10-22T10:54:54.820Z,99384.84
2022-10-22T10:57:49.331Z,99385.47
2022-10-22T11:00:20.337Z,99374.47
2022-10-22T11:03:09.063Z,99377.03
2022-10-22T11:05:56.073Z,99372.97
2022-10-22T11:08:34.576Z,99378.06
2022-10-22T11:11:33.384Z,99374.44
2022-10-22T11:14:25.330Z,99372.47
2022-10-22T11:17:14.830Z,99379.16
2022-10-22T11:19:54.628Z,99375.16
2022-10-22T11:22:29.810Z,99379.44
2022-10-22T11:25:17.978Z,99377.72
2022-10-22T11:28:06.595Z,99363.75
2022-10-22T11:30:38.461Z,99369.00
2022-10-22T11:33:12.122Z,99368.84
2022-10-22T11:35:43.753Z,99367.88
2022-10-22T11:38:16.399Z,99365.22
2022-10-22T11:40:58.042Z,99372.25
2022-10-22T11:43:31.928Z,99370.44
2022-10-22T11:46:22.349Z,99368.75
2022-10-22T11:49:15.566Z,99379.47
2022-10-22T11:51:46.300Z,99372.72
2022-10-22T11:54:42.794Z,99379.03
2022-10-22T11:57:20.241Z,99374.25
2022-10-22T11:59:47.145Z,99378.72
2022-10-22T12:02:41.762Z,99375.88
2022-10-22T12:05:40.377Z,99371.28
2022-10-22T12:08:21.418Z,99374.34
2022-10-22T12:11:16.549Z,99379.09
2022-10-22T12:14:02.181Z,99379.75
2022-10-22T12:16:57.296Z,99388.31
2022-10-22T12:19:29.439Z,99400.84
2022-10-22T12:22:26.211Z,99389.53
2022-10-22T12:25:01.147Z,99390.00
2022-10-22T12:27:42.224Z,99382.91
2022-10-22T12:30:27.104Z,99385.00
2022-10-22T12:32:56.976Z,99384.63
2022-10-22T12:35:33.412Z,99376.06
2022-10-22T12:38:08.850Z,99374.53
2022-10-22T12:40:36.193Z,99376.63
2022-10-22T12:43:12.695Z,99376.94
2022-10-22T12:45:40.005Z,99375.81
2022-10-22T12:48:34.758Z,99370.19
2022-10-22T12:51:04.340Z,99365.31
2022-10-22T12:53:35.479Z,99373.13
2022-10-22T12:56:18.285Z,99371.88
2022-10-22T12:59:05.811Z,99369.00
2022-10-22T13:01:39.279Z,99370.72
2022-10-22T13:04:37.913Z,99369.88
2022-10-22T13:07:12.675Z,99366.38
2022-10-22T13:09:46.329Z,99367.34
2022-10-22T13:12:17.905Z,99363.72
2022-10-22T13:14:46.961Z,99364.56
2022-10-22T13:17:17.468Z,99355.72
2022-10-22T13:19:49.980Z,99364.50
2022-10-22T13:22:35.511Z,99360.19
2022-10-22T13:25:19.800Z,99364.06
2022-10-22T13:27:51.319Z,99365.19
2022-10-22T13:30:28.318Z,99364.03
2022-10-22T13:32:59.541Z,99362.88
2022-10-22T13:35:29.764Z,99368.59
2022-10-22T13:37:56.588Z,99375.44
2022-10-22T13:40:23.689Z,99377.94
2022-10-22T13:42:51.637Z,99380.25
2022-10-22T13:45:19.131Z,99385.69
2022-10-22T13:47:52.369Z,99391.38
2022-10-22T13:50:21.071Z,99385.19
2022-10-22T13:52:54.493Z,99383.31
2022-10-22T13:55:30.987Z,99380.81
2022-10-22T13:58:24.162Z,99378.06
2022-10-22T14:00:57.641Z,99378.84
2022-10-22T14:03:32.526Z,99372.25
2022-10-22T14:05:59.711Z,99373.47
2022-10-22T14:08:28.925Z,99376.34
2022-10-22T14:10:56.400Z,99377.38
2022-10-22T14:13:23.776Z,99370.25
2022-10-22T14:15:52.586Z,99364.56
2022-10-22T14:18:25.632Z,99365.97
2022-10-22T14:21:07.844Z,99368.94
2022-10-22T14:23:36.844Z,99362.94
2022-10-22T14:26:05.094Z,99364.44
2022-10-22T14:28:40.931Z,99364.53
2022-10-22T14:31:13.796Z,99369.00
2022-10-22T14:33:41.003Z,99365.38
2022-10-22T14:36:13.899Z,99357.88
2022-10-22T14:38:42.853Z,99365.75
2022-10-22T14:41:21.909Z,99366.13
2022-10-22T14:43:49.893Z,99375.25
2022-10-22T14:46:17.923Z,99371.56
2022-10-22T14:48:45.434Z,99376.59
2022-10-22T14:51:20.530Z,99364.25
2022-10-22T14:53:48.177Z,99358.72
2022-10-22T14:56:18.662Z,99366.88
2022-10-22T14:58:45.951Z,99367.03
2022-10-22T15:01:13.376Z,99377.84
2022-10-22T15:03:40.561Z,99376.59
2022-10-22T15:06:07.963Z,99382.53
2022-10-22T15:08:54.042Z,99381.16
2022-10-22T15:11:22.484Z,99385.25
2022-10-22T15:13:49.518Z,99387.34
2022-10-22T15:16:16.934Z,99392.25
2022-10-22T15:18:44.329Z,99393.38
2022-10-22T15:21:20.153Z,99398.84
2022-10-22T15:23:49.709Z,99400.22
2022-10-22T15:26:17.871Z,99404.16
2022-10-22T15:28:46.230Z,99413.94
2022-10-22T15:31:15.031Z,99414.41
2022-10-22T15:33:43.388Z,99422.16
2022-10-22T15:36:13.103Z,99427.66
2022-10-22T15:38:40.713Z,99437.59
2022-10-22T15:41:12.316Z,99432.56
2022-10-22T15:43:39.307Z,99441.22
2022-10-22T15:46:18.558Z,99434.41
2022-10-22T15:48:47.524Z,99438.34
2022-10-22T15:51:17.285Z,99445.84
2022-10-22T15:53:44.849Z,99449.19
2022-10-22T15:56:12.679Z,99447.38
2022-10-22T15:58:39.750Z,99450.78
2022-10-22T16:01:12.429Z,99455.09
2022-10-22T16:03:40.541Z,99460.03
2022-10-22T16:06:09.724Z,99469.09
2022-10-22T16:08:37.383Z,99462.06
2022-10-22T16:11:05.042Z,99466.88
2022-10-22T16:13:32.140Z,99462.00
2022-10-22T16:15:59.253Z,99469.63
2022-10-22T16:18:27.364Z,99472.03
2022-10-22T16:20:54.376Z,99477.34
2022-10-22T16:23:21.739Z,99486.09
2022-10-22T16:25:49.805Z,99489.69
2022-10-22T16:28:17.147Z,99490.03
2022-10-22T16:30:44.338Z,99495.63
2022-10-22T16:33:12.265Z,99505.09
2022-10-22T16:35:42.878Z,99506.03
2022-10-22T16:38:11.414Z,99507.16
2022-10-22T16:40:38.709Z,99507.31
2022-10-22T16:43:06.129Z,99516.72
2022-10-22T16:45:33.221Z,99517.75
2022-10-22T16:48:00.116Z,99527.69
2022-10-22T16:50:27.680Z,99525.19
2022-10-22T16:52:54.807Z,99531.66
2022-10-22T16:55:21.996Z,99531.81
2022-10-22T16:57:54.537Z,99525.53
2022-10-22T17:00:22.462Z,99534.63
2022-10-22T17:02:54.673Z,99534.91
2022-10-22T17:05:22.409Z,99551.00
2022-10-22T17:07:50.088Z,99543.44
2022-10-22T17:10:20.427Z,99547.59
2022-10-22T17:12:48.507Z,99555.75
2022-10-22T17:15:16.263Z,99556.75
2022-10-22T17:17:48.712Z,99568.84
2022-10-22T17:20:16.957Z,99559.78
2022-10-22T17:22:44.933Z,99560.88
2022-10-22T17:25:15.268Z,99569.09
2022-10-22T17:27:44.290Z,99569.34
2022-10-22T17:30:17.637Z,99576.31
2022-10-22T17:32:46.252Z,99581.03
2022-10-22T17:35:15.951Z,99574.56
2022-10-22T17:37:43.351Z,99585.72
2022-10-22T17:40:12.251Z,99585.41
2022-10-22T17:42:40.358Z,99586.22
2022-10-22T17:45:08.541Z,99586.06
2022-10-22T17:47:37.178Z,99590.88
2022-10-22T17:50:04.892Z,99587.38
2022-10-22T17:52:32.157Z,99582.72
2022-10-22T17:54:59.559Z,99580.44
2022-10-22T17:57:26.823Z,99582.91
2022-10-22T17:59:53.843Z,99587.16
2022-10-22T18:02:22.337Z,99590.53
2022-10-22T18:04:54.439Z,99587.03
2022-10-22T18:07:22.079Z,99589.38
2022-10-22T18:09:49.634Z,99600.59
2022-10-22T18:12:18.653Z,99602.31
2022-10-22T18:14:47.834Z,99605.75
2022-10-22T18:19:50.519Z,99609.56
2022-10-22T18:22:17.546Z,99609.56
2022-10-22T18:24:45.894Z,99607.16
2022-10-22T18:27:14.496Z,99609.94
2022-10-22T18:29:42.175Z,99607.47
2022-10-22T18:32:13.156Z,99614.31
2022-10-22T18:34:41.009Z,99620.25
2022-10-22T18:37:08.635Z,99620.09
2022-10-22T18:39:36.069Z,99610.34
2022-10-22T18:42:06.910Z,99617.78
2022-10-22T18:44:35.689Z,99615.31
2022-10-22T18:47:03.222Z,99619.19
2022-10-22T18:49:31.363Z,99631.50
2022-10-22T18:52:01.300Z,99622.47
2022-10-22T18:54:30.098Z,99628.50
2022-10-22T18:57:03.071Z,99628.41
2022-10-22T18:59:30.944Z,99628.13
2022-10-22T19:02:01.756Z,99627.81
2022-10-22T19:04:37.265Z,99638.22
2022-10-22T19:07:06.703Z,99636.63
2022-10-22T19:09:35.494Z,99633.03
2022-10-22T19:12:02.730Z,99639.53
2022-10-22T19:14:29.729Z,99639.59
2022-10-22T19:16:58.075Z,99644.97
2022-10-22T19:19:25.331Z,99655.94
2022-10-22T19:21:52.836Z,99655.59
2022-10-22T19:24:21.266Z,99649.31
2022-10-22T19:26:49.254Z,99663.78
2022-10-22T19:29:24.031Z,99651.03
2022-10-22T19:31:51.918Z,99658.41
2022-10-22T19:34:21.064Z,99663.22
2022-10-22T19:36:53.120Z,99662.94
2022-10-22T19:39:20.865Z,99669.94
2022-10-22T19:41:48.475Z,99664.91
2022-10-22T19:44:17.967Z,99679.19
2022-10-22T19:46:47.734Z,99671.66
2022-10-22T19:49:18.958Z,99673.22
2022-10-22T19:51:52.333Z,99672.53
2022-10-22T19:54:21.729Z,99681.53
2022-10-22T19:56:50.377Z,99680.56
2022-10-22T19:59:21.214Z,99685.34
2022-10-22T20:01:49.128Z,99688.00
2022-10-22T20:04:17.945Z,99685.97
2022-10-22T20:06:47.371Z,99687.94
2022-10-22T20:09:14.403Z,99688.97
2022-10-22T20:11:42.094Z,99691.31
2022-10-22T20:14:10.160Z,99688.53
2022-10-22T20:16:37.395Z,99690.59
2022-10-22T20:19:07.792Z,99696.56
2022-10-22T20:21:35.749Z,99695.53
2022-10-22T20:24:02.859Z,99706.88
2022-10-22T20:26:31.894Z,99702.38
2022-10-22T20:29:00.462Z,99710.16
2022-10-22T20:31:31.517Z,99706.44
2022-10-22T20:34:02.999Z,99718.63
2022-10-22T20:36:31.899Z,99707.69
2022-10-22T20:39:07.177Z,99711.56
2022-10-22T20:41:38.140Z,99707.19
2022-10-22T20:44:05.753Z,99695.81
2022-10-22T20:46:34.301Z,99706.50
2022-10-22T20:49:27.793Z,99715.91
2022-10-22T20:51:55.853Z,99715.53
2022-10-22T20:54:23.358Z,99716.00
2022-10-22T20:56:51.788Z,99715.03
2022-10-22T20:59:19.139Z,99725.28
2022-10-22T21:01:52.242Z,99732.25
2022-10-22T21:04:21.660Z,99736.69
2022-10-22T21:06:50.478Z,99741.94
2022-10-22T21:09:21.293Z,99744.94
2022-10-22T21:11:49.470Z,99742.00
2022-10-22T21:14:20.118Z,99742.06
2022-10-22T21:16:51.197Z,99743.75
2022-10-22T21:19:20.254Z,99741.75
2022-10-22T21:21:48.636Z,99740.19
2022-10-22T21:24:15.710Z,99727.81
2022-10-22T21:26:44.415Z,99730.91
2022-10-22T21:29:13.069Z,99734.50
2022-10-22T21:31:40.701Z,99732.34
2022-10-22T21:34:07.713Z,99728.13
2022-10-22T21:36:35.826Z,99730.69
2022-10-22T21:39:04.258Z,99730.44
2022-10-22T21:41:31.520Z,99731.72
2022-10-22T21:43:58.902Z,99733.91
2022-10-22T21:46:28.205Z,99740.47
2022-10-22T21:49:03.338Z,99738.78
2022-10-22T21:51:33.394Z,99734.91
2022-10-22T21:54:00.592Z,99744.81
2022-10-22T21:56:33.936Z,99739.09
2022-10-22T21:59:02.028Z,99742.28
2022-10-22T22:01:29.169Z,99736.97
2022-10-22T22:03:56.253Z,99734.47
2022-10-22T22:06:28.372Z,99737.50
2022-10-22T22:08:58.131Z,99742.19
2022-10-22T22:11:26.922Z,99743.81
2022-10-22T22:13:57.685Z,99749.84
2022-10-22T22:16:28.643Z,99735.66
2022-10-22T22:18:58.276Z,99744.88
2022-10-22T22:21:25.306Z,99746.88
2022-10-22T22:23:52.320Z,99753.66
2022-10-22T22:26:25.469Z,99749.19
2022-10-22T22:28:58.472Z,99758.63
2022-10-22T22:31:29.054Z,99750.22
2022-10-22T22:34:11.238Z,99752.63
2022-10-22T22:36:40.934Z,99756.00
2022-10-22T22:39:10.968Z,99758.84
2022-10-22T22:41:37.896Z,99763.72
2022-10-22T22:44:05.359Z,99767.31
2022-10-22T22:46:33.614Z,99758.56
2022-10-22T22:49:00.755Z,99768.78
2022-10-22T22:51:27.931Z,99761.22
2022-10-22T22:53:57.050Z,99772.50
2022-10-22T22:56:26.555Z,99767.31
2022-10-22T22:58:53.667Z,99779.09
2022-10-22T23:01:26.240Z,99770.41
2022-10-22T23:04:00.211Z,99773.19
2022-10-22T23:06:29.615Z,99773.91
2022-10-22T23:08:58.348Z,99772.75
2022-10-22T23:11:26.872Z,99771.69
2022-10-22T23:13:56.278Z,99775.78
2022-10-22T23:16:25.608Z,99777.50
2022-10-22T23:18:55.264Z,99782.34
2022-10-22T23:21:28.305Z,99784.53
2022-10-22T23:23:59.026Z,99785.44
2022-10-22T23:26:33.218Z,99792.00
2022-10-22T23:29:21.989Z,99796.31
2022-10-22T23:31:50.182Z,99788.38
2022-10-22T23:34:20.388Z,99790.16
2022-10-22T23:36:47.687Z,99792.66
2022-10-22T23:39:17.677Z,99803.59
2022-10-22T23:41:44.838Z,99805.44
2022-10-22T23:44:12.818Z,99814.25
2022-10-22T23:46:40.043Z,99813.25
2022-10-22T23:49:09.260Z,99808.00
2022-10-22T23:51:36.660Z,99802.28
2022-10-22T23:54:07.018Z,99805.16
2022-10-22T23:56:36.434Z,99806.50
2022-10-22T23:59:04.528Z,99806.63
